Terminal Aerodrome Forecast
Issued by NWS

Home | Current Version | Previous Version | Text Only | Print | Product List | Glossary On
Versions: 1 2 3 4 5 6 7 8 9 10 11 12
000
FTPA31 PHFO 191120
TAFHOG
TAF
PHOG 191120Z 1912/2012 06014G22KT P6SM VCSH SCT025 BKN050
     FM200500 06012KT P6SM VCSH SCT025 BKN050
      AMD LTD TO VIS AND WIND TIL 191600=

USA.gov is the U.S. government's official web portal to all federal, state and local government web resources and services.